Tropical Cyclones
[Index]
Main Index Home Page Stock Weather Photos Extreme Storms Discussion Storm News and Storm Chasing Reports Tropical Cyclones / Hurricanes / Typhoons Weather Data and Links Wild Fires / Bushfires Weather Observation Techniques Weather Picture Catalogue Tornado Pictures and Reports Stock Video Footage and DVDs for sale
Season 2000-2001 Tropical Cyclone VINCENT Track Map
Season 2000-2001 Summaries: [BoM-AU] [JTWC-AU] [JTWC-SIO] [JTWC-SPAC] [JTWC-SH]
<<- Previous TC | BoM 2000-2001 Season | Next TC ->>

click for intensity scale information  Lat/long Grid: Show Hide

 Date Labels: Show Hide

Bureau of Meteorology Tropical Cyclone Data

Name: VINCENT
Number: 846 / 200001_04

11 Feb 2001 00:00 UTC to 15 Feb 2001 10:00 UTC

    date/time    lat    long    hPa   cat  kts
2001-02-11 00   15.8   112.2                20          
2001-02-11 06   15.6   111.8                20          
2001-02-11 12   15.4   111.6                25          
2001-02-11 18   15.3   111.3                25          
2001-02-12 01   14.9   110.9    990    1    30          
2001-02-12 04   14.7   110.8    988    1    35          
2001-02-12 07   14.5   111.0    984    2    40          
2001-02-12 10   14.4   111.4    980    2    45          
2001-02-12 13   14.4   111.9    980    2    45          
2001-02-12 16   14.4   112.4    980    2    45          
2001-02-12 19   14.5   113.0    980    2    45          
2001-02-12 22   14.5   113.7    984    2    45          
2001-02-13 01   14.6   114.4    984    2    40          
2001-02-13 04   14.9   115.0    986    1    35          
2001-02-13 07   15.2   115.3    986    1    35          
2001-02-13 10   15.4   115.6    988    1    30          
2001-02-13 13   15.5   116.1    988    1    30          
2001-02-13 16   15.5   116.7    990    1    30          
2001-02-13 19   15.6   117.3    990    1    30          
2001-02-13 22   15.8   117.8    990    1    30          
2001-02-14 01   16.0   118.3    990    1    30          
2001-02-14 04   16.2   118.5    990    1    30          
2001-02-14 07   16.5   118.8    990    1    30          
2001-02-14 10   16.7   119.1    990    1    25          
2001-02-14 16   16.8   119.7    990    1    25          
2001-02-14 22   16.9   120.1    990    1    25          
2001-02-15 04   17.1   120.7    990    1    25          
2001-02-15 10   17.8   121.7    990    1    25          
Winds are 10-min average.

Tropical cyclone tracks developed by Michael Bath using data from the Bureau of Meteorology and Google Maps.


[Australian Severe Weather index] [Copyright Notice] [Email Contacts] [Search This Site] [Privacy Policy]
Document: tropical_cyclone_vincent.htm Updated: 29 June 2017